| time (UTC) | temp C | wind direction | speed KPH | gust KPH | rain 1hr cm | rain 24hr cm | rain mn cm | humidity % | barometer mb |
| 20260510204507 | 18 | 341 | 3.2 | 3.2 | 0.00 | 0.00 | 0.00 | 49 | 1013.9 |
| 20260510204003 | 17 | 287 | 3.2 | 3.2 | 0.00 | 0.00 | 0.00 | 44 | 1013.8 |
| 20260510203501 | 17 | 316 | 4.8 | 4.8 | 0.00 | 0.00 | 0.00 | 48 | 1013.9 |
| 20260510203001 | 17 | 269 | 4.8 | 8.0 | 0.00 | 0.00 | 0.00 | 44 | 1013.9 |
| 20260510202456 | 17 | 301 | 4.8 | 4.8 | 0.00 | 0.00 | 0.00 | 44 | 1013.9 |
| 20260510201953 | 17 | 281 | 6.4 | 8.0 | 0.00 | 0.00 | 0.00 | 42 | 1013.9 |
| 20260510201451 | 18 | 261 | 4.8 | 4.8 | 0.00 | 0.00 | 0.00 | 43 | 1013.9 |
| 20260510200947 | 18 | 269 | 3.2 | 3.2 | 0.00 | 0.00 | 0.00 | 44 | 1013.8 |
| 20260510200442 | 18 | 272 | 4.8 | 8.0 | 0.00 | 0.00 | 0.00 | 44 | 1014.0 |
| 20260510195935 | 18 | 280 | 3.2 | 3.2 | 0.00 | 0.00 | 0.00 | 42 | 1013.8 |
| 20260510195433 | 18 | 323 | 3.2 | 4.8 | 0.00 | 0.00 | 0.00 | 42 | 1014.0 |
| 20260510194927 | 18 | 291 | 3.2 | 3.2 | 0.00 | 0.00 | 0.00 | 45 | 1013.8 |
| 20260510194424 | 18 | 289 | 1.6 | 3.2 | 0.00 | 0.00 | 0.00 | 48 | 1013.9 |
| 20260510193920 | 18 | 273 | 1.6 | 3.2 | 0.00 | 0.00 | 0.00 | 43 | 1013.8 |
| 20260510193415 | 18 | 316 | 3.2 | 3.2 | 0.00 | 0.00 | 0.00 | 46 | 1013.9 |
| 20260510192911 | 18 | 274 | 3.2 | 4.8 | 0.00 | 0.00 | 0.00 | 44 | 1014.0 |
| 20260510192406 | 18 | 242 | 1.6 | 3.2 | 0.00 | 0.00 | 0.00 | 48 | 1013.9 |
| 20260510191902 | 19 | 276 | 3.2 | 3.2 | 0.00 | 0.00 | 0.00 | 45 | 1013.9 |
| 20260510191358 | 18 | 278 | 1.6 | 3.2 | 0.00 | 0.00 | 0.00 | 49 | 1013.9 |
| 20260510190856 | 18 | 262 | 1.6 | 3.2 | 0.00 | 0.00 | 0.00 | 47 | 1013.9 |
| 20260510190353 | 17 | 261 | 1.6 | 3.2 | 0.00 | 0.00 | 0.00 | 49 | 1013.8 |
| 20260510185849 | 18 | 287 | 3.2 | 4.8 | 0.00 | 0.00 | 0.00 | 50 | 1013.7 |
| 20260510185347 | 18 | 309 | 1.6 | 3.2 | 0.00 | 0.00 | 0.00 | 51 | 1013.7 |
| 20260510184844 | 19 | 325 | 8.0 | 9.7 | 0.00 | 0.00 | 0.00 | 48 | 1013.9 |
| 20260510184342 | 18 | 267 | 3.2 | 3.2 | 0.00 | 0.00 | 0.00 | 53 | 1013.9 |
| 20260510183841 | 18 | 278 | 4.8 | 4.8 | 0.00 | 0.00 | 0.00 | 50 | 1013.6 |
| 20260510183337 | 18 | 301 | 3.2 | 3.2 | 0.00 | 0.00 | 0.00 | 53 | 1013.8 |
| 20260510182833 | 18 | 257 | 1.6 | 1.6 | 0.00 | 0.00 | 0.00 | 51 | 1013.7 |
| 20260510182330 | 17 | 265 | 1.6 | 1.6 | 0.00 | 0.00 | 0.00 | 54 | 1013.8 |
| 20260510181825 | 18 | 254 | 0.0 | 1.6 | 0.00 | 0.00 | 0.00 | 51 | 1013.8 |
| 20260510181323 | 18 | 265 | 1.6 | 1.6 | 0.00 | 0.00 | 0.00 | 49 | 1013.9 |
| 20260510180819 | 17 | 259 | 1.6 | 1.6 | 0.00 | 0.00 | 0.00 | 53 | 1013.9 |
| 20260510180316 | 18 | 268 | 4.8 | 4.8 | 0.00 | 0.00 | 0.00 | 51 | 1013.8 |
| 20260510175813 | 17 | 253 | 1.6 | 3.2 | 0.00 | 0.00 | 0.00 | 51 | 1013.7 |
| 20260510175309 | 17 | 284 | 4.8 | 4.8 | 0.00 | 0.00 | 0.00 | 49 | 1013.5 |
| 20260510174806 | 17 | 274 | 3.2 | 3.2 | 0.00 | 0.00 | 0.00 | 52 | 1013.2 |
| 20260510174303 | 17 | 265 | 4.8 | 4.8 | 0.00 | 0.00 | 0.00 | 54 | 1013.5 |
| 20260510173759 | 17 | 266 | 3.2 | 4.8 | 0.00 | 0.00 | 0.00 | 55 | 1013.5 |
| 20260510173255 | 17 | 288 | 3.2 | 3.2 | 0.00 | 0.00 | 0.00 | 51 | 1013.6 |
| 20260510172751 | 17 | 270 | 3.2 | 3.2 | 0.00 | 0.00 | 0.00 | 47 | 1013.6 |
| 20260510172247 | 17 | 288 | 4.8 | 4.8 | 0.00 | 0.00 | 0.00 | 53 | 1013.3 |
| 20260510171744 | 17 | 246 | 0.0 | 1.6 | 0.00 | 0.00 | 0.00 | 49 | 1013.6 |
| 20260510171241 | 17 | 297 | 4.8 | 4.8 | 0.00 | 0.00 | 0.00 | 51 | 1013.5 |
| 20260510170738 | 17 | 250 | 0.0 | 1.6 | 0.00 | 0.00 | 0.00 | 47 | 1013.3 |
| 20260510170234 | 17 | 280 | 1.6 | 3.2 | 0.00 | 0.00 | 0.00 | 52 | 1013.5 |
| 20260510165730 | 17 | 307 | 4.8 | 4.8 | 0.00 | 0.00 | 0.00 | 55 | 1013.6 |
| 20260510165226 | 17 | 296 | 3.2 | 3.2 | 0.00 | 0.00 | 0.00 | 48 | 1013.6 |
| 20260510164724 | 17 | 291 | 1.6 | 1.6 | 0.00 | 0.00 | 0.00 | 53 | 1013.8 |
| 20260510164221 | 17 | 283 | 1.6 | 3.2 | 0.00 | 0.00 | 0.00 | 50 | 1013.8 |
| 20260510163716 | 17 | 251 | 1.6 | 1.6 | 0.00 | 0.00 | 0.00 | 57 | 1013.6 |
| 20260510163212 | 17 | 70 | 4.8 | 8.0 | 0.00 | 0.00 | 0.00 | 51 | 1013.8 |
| 20260510162711 | 17 | 258 | 1.6 | 1.6 | 0.00 | 0.00 | 0.00 | 54 | 1013.6 |
| 20260510162209 | 17 | 33 | 4.8 | 8.0 | 0.00 | 0.00 | 0.00 | 55 | 1013.8 |
| 20260510161705 | 17 | 277 | 3.2 | 3.2 | 0.00 | 0.00 | 0.00 | 54 | 1013.7 |
| 20260510161201 | 16 | 248 | 0.0 | 0.0 | 0.00 | 0.00 | 0.00 | 53 | 1013.7 |
| 20260510160658 | 17 | 291 | 3.2 | 3.2 | 0.00 | 0.00 | 0.00 | 52 | 1013.5 |
| 20260510160153 | 16 | 274 | 1.6 | 1.6 | 0.00 | 0.00 | 0.00 | 47 | 1013.5 |
| 20260510155649 | 16 | 291 | 0.0 | 1.6 | 0.00 | 0.00 | 0.00 | 47 | 1013.2 |
| 20260510155145 | 16 | 291 | 1.6 | 1.6 | 0.00 | 0.00 | 0.00 | 56 | 1013.6 |
| 20260510154641 | 17 | 298 | 1.6 | 3.2 | 0.00 | 0.00 | 0.00 | 52 | 1013.2 |
| 20260510154137 | 17 | 229 | 0.0 | 1.6 | 0.00 | 0.00 | 0.00 | 51 | 1013.5 |
| 20260510153632 | 16 | 288 | 1.6 | 1.6 | 0.00 | 0.00 | 0.00 | 57 | 1013.1 |
| 20260510153129 | 16 | 339 | 3.2 | 4.8 | 0.00 | 0.00 | 0.00 | 57 | 1013.0 |
| 20260510152626 | 16 | 245 | 1.6 | 3.2 | 0.00 | 0.00 | 0.00 | 53 | 1013.1 |
| 20260510152121 | 16 | 283 | 3.2 | 3.2 | 0.00 | 0.00 | 0.00 | 59 | 1013.1 |
| 20260510151618 | 16 | 343 | 4.8 | 4.8 | 0.00 | 0.00 | 0.00 | 56 | 1013.1 |
| 20260510151117 | 16 | 289 | 3.2 | 3.2 | 0.00 | 0.00 | 0.00 | 55 | 1012.7 |
| 20260510150616 | 16 | 259 | 1.6 | 3.2 | 0.00 | 0.00 | 0.00 | 57 | 1012.6 |
| 20260510150113 | 16 | 304 | 3.2 | 3.2 | 0.00 | 0.00 | 0.00 | 61 | 1012.7 |
| 20260510145609 | 15 | 290 | 1.6 | 1.6 | 0.00 | 0.00 | 0.00 | 57 | 1012.7 |
| 20260510145106 | 15 | 24 | 3.2 | 3.2 | 0.00 | 0.00 | 0.00 | 59 | 1012.6 |
| 20260510144602 | 15 | 291 | 1.6 | 1.6 | 0.00 | 0.00 | 0.00 | 59 | 1012.6 |
| 20260510144058 | 15 | 241 | 0.0 | 0.0 | 0.00 | 0.00 | 0.00 | 57 | 1012.6 |
| 20260510143553 | 15 | 220 | 0.0 | 0.0 | 0.00 | 0.00 | 0.00 | 58 | 1012.4 |
| 20260510143050 | 15 | 255 | 0.0 | 1.6 | 0.00 | 0.00 | 0.00 | 63 | 1012.3 |
| 20260510142547 | 14 | 254 | 0.0 | 0.0 | 0.00 | 0.00 | 0.00 | 62 | 1012.2 |
| 20260510142044 | 14 | 285 | 3.2 | 3.2 | 0.00 | 0.00 | 0.00 | 62 | 1012.3 |
| 20260510141540 | 13 | 252 | 0.0 | 0.0 | 0.00 | 0.00 | 0.00 | 61 | 1012.1 |
| 20260510141038 | 13 | 27 | 1.6 | 3.2 | 0.00 | 0.00 | 0.00 | 62 | 1012.3 |
| 20260510140534 | 13 | 254 | 0.0 | 0.0 | 0.00 | 0.00 | 0.00 | 65 | 1011.8 |
| 20260510140034 | 13 | 249 | 0.0 | 0.0 | 0.00 | 0.00 | 0.00 | 63 | 1012.2 |
| 20260510135530 | 12 | 269 | 1.6 | 1.6 | 0.00 | 0.00 | 0.00 | 64 | 1012.1 |
| 20260510135026 | 13 | 233 | 0.0 | 0.0 | 0.00 | 0.00 | 0.00 | 64 | 1012.2 |
| 20260510134524 | 12 | 294 | 0.0 | 1.6 | 0.00 | 0.00 | 0.00 | 66 | 1011.8 |
| 20260510134020 | 12 | 223 | 1.6 | 1.6 | 0.00 | 0.00 | 0.00 | 64 | 1011.8 |
| 20260510133516 | 12 | 272 | 1.6 | 1.6 | 0.00 | 0.00 | 0.00 | 65 | 1011.9 |
| 20260510133013 | 12 | 333 | 1.6 | 1.6 | 0.00 | 0.00 | 0.00 | 66 | 1011.7 |
| 20260510132509 | 12 | 308 | 1.6 | 3.2 | 0.00 | 0.00 | 0.00 | 65 | 1011.8 |
| 20260510132006 | 12 | 262 | 1.6 | 1.6 | 0.00 | 0.00 | 0.00 | 67 | 1011.9 |
| 20260510131504 | 12 | 57 | 0.0 | 0.0 | 0.00 | 0.00 | 0.00 | 67 | 1011.9 |
| 20260510131001 | 12 | 262 | 0.0 | 1.6 | 0.00 | 0.00 | 0.00 | 65 | 1011.8 |
| 20260510130457 | 11 | 31 | 3.2 | 3.2 | 0.00 | 0.00 | 0.00 | 66 | 1011.6 |
| 20260510125954 | 11 | 243 | 0.0 | 0.0 | 0.00 | 0.00 | 0.00 | 67 | 1011.6 |
| 20260510125451 | 11 | 19 | 1.6 | 1.6 | 0.00 | 0.00 | 0.00 | 68 | 1011.5 |
| 20260510124947 | 11 | 267 | 0.0 | 0.0 | 0.00 | 0.00 | 0.00 | 73 | 1011.3 |
| 20260510124443 | 11 | 273 | 1.6 | 1.6 | 0.00 | 0.00 | 0.00 | 73 | 1011.3 |
| 20260510123940 | 11 | 263 | 0.0 | 1.6 | 0.00 | 0.00 | 0.00 | 72 | 1011.2 |
| 20260510123436 | 11 | 263 | 0.0 | 0.0 | 0.00 | 0.00 | 0.00 | 72 | 1011.4 |
| 20260510122932 | 11 | 284 | 1.6 | 1.6 | 0.00 | 0.00 | 0.00 | 74 | 1011.4 |
| 20260510122433 | 11 | 288 | 0.0 | 0.0 | 0.00 | 0.00 | 0.00 | 73 | 1011.1 |
| 20260510121929 | 11 | 259 | 0.0 | 1.6 | 0.00 | 0.00 | 0.00 | 75 | 1011.2 |
| 20260510121427 | 11 | 257 | 0.0 | 0.0 | 0.00 | 0.00 | 0.00 | 74 | 1011.1 |
| 20260510120925 | 11 | 248 | 0.0 | 0.0 | 0.00 | 0.00 | 0.00 | 72 | 1011.1 |
| 20260510120421 | 11 | 257 | 0.0 | 0.0 | 0.00 | 0.00 | 0.00 | 74 | 1011.2 |
| 20260510115917 | 11 | 261 | 0.0 | 0.0 | 0.00 | 0.00 | 0.00 | 73 | 1010.9 |
| 20260510115415 | 11 | 267 | 0.0 | 0.0 | 0.00 | 0.00 | 0.00 | 73 | 1010.9 |
| 20260510114910 | 11 | 254 | 0.0 | 0.0 | 0.00 | 0.00 | 0.00 | 74 | 1010.8 |
| 20260510114407 | 11 | 271 | 1.6 | 1.6 | 0.00 | 0.00 | 0.00 | 73 | 1010.8 |
| 20260510113902 | 11 | 265 | 1.6 | 1.6 | 0.00 | 0.00 | 0.00 | 72 | 1010.6 |
| 20260510113358 | 11 | 259 | 0.0 | 0.0 | 0.00 | 0.00 | 0.00 | 74 | 1010.9 |
| 20260510112855 | 11 | 258 | 0.0 | 0.0 | 0.00 | 0.00 | 0.00 | 75 | 1010.6 |
| 20260510112353 | 11 | 257 | 0.0 | 0.0 | 0.00 | 0.00 | 0.00 | 73 | 1010.4 |
| 20260510111849 | 11 | 341 | 1.6 | 1.6 | 0.00 | 0.00 | 0.00 | 74 | 1009.9 |
| 20260510111345 | 11 | 273 | 1.6 | 1.6 | 0.00 | 0.00 | 0.00 | 76 | 1009.8 |
| 20260510110840 | 11 | 271 | 1.6 | 1.6 | 0.00 | 0.00 | 0.00 | 78 | 1009.9 |
| 20260510110338 | 11 | 250 | 0.0 | 0.0 | 0.00 | 0.00 | 0.00 | 77 | 1010.1 |
| 20260510105834 | 11 | 255 | 0.0 | 0.0 | 0.00 | 0.00 | 0.00 | 76 | 1010.0 |
| 20260510105333 | 11 | 255 | 0.0 | 0.0 | 0.00 | 0.00 | 0.00 | 77 | 1009.9 |
| 20260510104830 | 11 | 277 | 1.6 | 1.6 | 0.00 | 0.00 | 0.00 | 77 | 1009.7 |
| 20260510104327 | 11 | 259 | 0.0 | 0.0 | 0.00 | 0.00 | 0.00 | 78 | 1009.5 |
| 20260510103823 | 11 | 267 | 0.0 | 1.6 | 0.00 | 0.00 | 0.00 | 78 | 1009.4 |
| 20260510103320 | 11 | 257 | 0.0 | 1.6 | 0.00 | 0.00 | 0.00 | 80 | 1009.5 |
| 20260510102816 | 11 | 293 | 0.0 | 1.6 | 0.00 | 0.00 | 0.00 | 81 | 1009.3 |
| 20260510102312 | 11 | 276 | 1.6 | 1.6 | 0.00 | 0.00 | 0.00 | 81 | 1009.1 |
| 20260510101809 | 11 | 265 | 1.6 | 1.6 | 0.00 | 0.00 | 0.00 | 83 | 1009.0 |
| 20260510101307 | 11 | 272 | 0.0 | 1.6 | 0.00 | 0.00 | 0.00 | 84 | 1008.8 |
| 20260510100803 | 11 | 256 | 0.0 | 0.0 | 0.00 | 0.00 | 0.00 | 85 | 1008.7 |
| 20260510100301 | 11 | 257 | 0.0 | 1.6 | 0.00 | 0.00 | 0.00 | 85 | 1008.6 |
| 20260510095756 | 11 | 255 | 0.0 | 0.0 | 0.00 | 0.00 | 0.00 | 84 | 1008.8 |
| 20260510095252 | 11 | 255 | 0.0 | 0.0 | 0.00 | 0.00 | 0.00 | 84 | 1008.7 |
| 20260510094751 | 11 | 279 | 1.6 | 1.6 | 0.00 | 0.00 | 0.00 | 83 | 1008.8 |
| 20260510094246 | 12 | 258 | 0.0 | 1.6 | 0.00 | 0.00 | 0.00 | 84 | 1008.5 |
| 20260510093742 | 12 | 252 | 0.0 | 0.0 | 0.00 | 0.00 | 0.00 | 84 | 1008.3 |
| 20260510093240 | 12 | 275 | 1.6 | 1.6 | 0.00 | 0.00 | 0.00 | 84 | 1008.4 |
| 20260510092736 | 12 | 248 | 0.0 | 0.0 | 0.00 | 0.00 | 0.00 | 84 | 1008.3 |
| 20260510092231 | 12 | 246 | 0.0 | 0.0 | 0.00 | 0.00 | 0.00 | 85 | 1008.3 |
| 20260510091727 | 11 | 256 | 0.0 | 0.0 | 0.00 | 0.00 | 0.00 | 85 | 1008.0 |
| 20260510091224 | 12 | 242 | 0.0 | 0.0 | 0.00 | 0.00 | 0.00 | 85 | 1007.6 |
| 20260510090721 | 12 | 241 | 0.0 | 0.0 | 0.00 | 0.00 | 0.00 | 84 | 1007.9 |
| 20260510090218 | 12 | 250 | 0.0 | 0.0 | 0.00 | 0.00 | 0.00 | 82 | 1007.6 |
| 20260510085713 | 12 | 256 | 0.0 | 1.6 | 0.00 | 0.00 | 0.00 | 81 | 1007.5 |
| 20260510085208 | 12 | 280 | 0.0 | 0.0 | 0.00 | 0.00 | 0.00 | 81 | 1007.3 |
| 20260510084704 | 13 | 252 | 0.0 | 0.0 | 0.00 | 0.00 | 0.00 | 80 | 1007.1 |
| 20260510084202 | 13 | 228 | 3.2 | 3.2 | 0.00 | 0.00 | 0.00 | 79 | 1007.0 |
| 20260510083658 | 13 | 269 | 1.6 | 3.2 | 0.00 | 0.00 | 0.00 | 80 | 1006.9 |
| 20260510083155 | 13 | 294 | 3.2 | 4.8 | 0.00 | 0.00 | 0.00 | 82 | 1007.1 |
| 20260510082651 | 13 | 258 | 1.6 | 1.6 | 0.00 | 0.00 | 0.00 | 83 | 1006.7 |
| 20260510082146 | 13 | 287 | 1.6 | 1.6 | 0.00 | 0.00 | 0.00 | 82 | 1006.9 |
| 20260510081642 | 14 | 259 | 0.0 | 1.6 | 0.00 | 0.00 | 0.00 | 81 | 1006.9 |
| 20260510081138 | 14 | 272 | 1.6 | 1.6 | 0.00 | 0.00 | 0.00 | 80 | 1006.6 |
| 20260510080637 | 15 | 287 | 3.2 | 3.2 | 0.00 | 0.00 | 0.00 | 78 | 1006.7 |
| 20260510080134 | 15 | 296 | 4.8 | 4.8 | 0.00 | 0.00 | 0.00 | 77 | 1006.9 |
| 20260510075631 | 15 | 285 | 4.8 | 4.8 | 0.00 | 0.00 | 0.00 | 76 | 1006.7 |
| 20260510075129 | 15 | 268 | 1.6 | 3.2 | 0.00 | 0.00 | 0.00 | 75 | 1006.7 |
| 20260510074625 | 15 | 256 | 8.0 | 9.7 | 0.00 | 0.00 | 0.00 | 75 | 1006.8 |
| 20260510074121 | 15 | 269 | 3.2 | 3.2 | 0.00 | 0.00 | 0.00 | 74 | 1006.6 |
| 20260510073617 | 15 | 262 | 4.8 | 4.8 | 0.00 | 0.00 | 0.00 | 74 | 1006.6 |
| 20260510073114 | 15 | 260 | 4.8 | 4.8 | 0.00 | 0.00 | 0.00 | 73 | 1006.7 |
| 20260510072610 | 15 | 277 | 6.4 | 8.0 | 0.00 | 0.00 | 0.00 | 73 | 1006.5 |
| 20260510072107 | 15 | 281 | 4.8 | 4.8 | 0.00 | 0.00 | 0.00 | 72 | 1006.7 |
| 20260510071603 | 16 | 265 | 4.8 | 4.8 | 0.00 | 0.00 | 0.00 | 71 | 1006.7 |
| 20260510071101 | 16 | 273 | 6.4 | 9.7 | 0.00 | 0.00 | 0.00 | 70 | 1006.7 |
| 20260510070558 | 16 | 263 | 8.0 | 9.7 | 0.00 | 0.00 | 0.00 | 70 | 1006.8 |
| 20260510070055 | 16 | 263 | 8.0 | 9.7 | 0.00 | 0.00 | 0.00 | 70 | 1006.6 |
| 20260510065551 | 16 | 265 | 4.8 | 8.0 | 0.00 | 0.00 | 0.00 | 71 | 1006.7 |
| 20260510065047 | 16 | 278 | 4.8 | 4.8 | 0.00 | 0.00 | 0.00 | 70 | 1006.6 |
| 20260510064543 | 16 | 267 | 4.8 | 8.0 | 0.00 | 0.00 | 0.00 | 71 | 1006.7 |
| 20260510064040 | 16 | 263 | 4.8 | 4.8 | 0.00 | 0.00 | 0.00 | 71 | 1006.6 |
| 20260510063537 | 16 | 264 | 3.2 | 4.8 | 0.00 | 0.00 | 0.00 | 72 | 1006.7 |
| 20260510063035 | 16 | 257 | 6.4 | 8.0 | 0.00 | 0.00 | 0.00 | 71 | 1006.7 |
| 20260510062530 | 16 | 263 | 8.0 | 9.7 | 0.00 | 0.00 | 0.00 | 72 | 1006.8 |
| 20260510062025 | 16 | 265 | 8.0 | 9.7 | 0.00 | 0.00 | 0.00 | 73 | 1006.8 |
| 20260510061522 | 16 | 265 | 9.7 | 11.3 | 0.00 | 0.00 | 0.00 | 74 | 1006.8 |
| 20260510061019 | 16 | 254 | 9.7 | 12.9 | 0.00 | 0.00 | 0.00 | 75 | 1006.8 |
| 20260510060515 | 16 | 257 | 9.7 | 11.3 | 0.00 | 0.00 | 0.00 | 75 | 1006.9 |
| 20260510060012 | 16 | 282 | 8.0 | 9.7 | 0.00 | 0.00 | 0.00 | 75 | 1007.0 |
| 20260510055507 | 16 | 257 | 11.3 | 12.9 | 0.00 | 0.00 | 0.00 | 75 | 1006.8 |
| 20260510055006 | 15 | 259 | 6.4 | 8.0 | 0.00 | 0.00 | 0.00 | 79 | 1006.9 |
| 20260510054501 | 15 | 273 | 3.2 | 3.2 | 0.00 | 0.00 | 0.00 | 79 | 1006.9 |
| 20260510053956 | 15 | 252 | 3.2 | 3.2 | 0.00 | 0.00 | 0.00 | 79 | 1006.8 |
| 20260510053451 | 15 | 247 | 0.0 | 0.0 | 0.00 | 0.00 | 0.00 | 79 | 1006.7 |
| 20260510052948 | 15 | 244 | 3.2 | 3.2 | 0.00 | 0.00 | 0.00 | 78 | 1006.5 |
| 20260510052444 | 15 | 263 | 1.6 | 1.6 | 0.00 | 0.00 | 0.00 | 78 | 1006.4 |
| 20260510051941 | 15 | 245 | 1.6 | 1.6 | 0.00 | 0.00 | 0.00 | 78 | 1006.5 |
| 20260510051437 | 15 | 250 | 0.0 | 1.6 | 0.00 | 0.00 | 0.00 | 77 | 1006.4 |
| 20260510050933 | 15 | 260 | 4.8 | 4.8 | 0.00 | 0.00 | 0.00 | 78 | 1006.4 |
| 20260510050430 | 15 | 253 | 1.6 | 1.6 | 0.00 | 0.00 | 0.00 | 78 | 1006.4 |
| 20260510045927 | 15 | 252 | 0.0 | 1.6 | 0.00 | 0.00 | 0.00 | 78 | 1006.4 |
| 20260510045425 | 15 | 252 | 1.6 | 3.2 | 0.00 | 0.00 | 0.00 | 78 | 1006.5 |
| 20260510044921 | 15 | 266 | 1.6 | 3.2 | 0.00 | 0.00 | 0.00 | 79 | 1006.4 |
| 20260510044418 | 15 | 270 | 1.6 | 1.6 | 0.00 | 0.00 | 0.00 | 79 | 1006.2 |
| 20260510043915 | 15 | 240 | 0.0 | 1.6 | 0.00 | 0.00 | 0.00 | 78 | 1006.3 |
| 20260510043411 | 15 | 258 | 1.6 | 1.6 | 0.00 | 0.00 | 0.00 | 78 | 1006.3 |
| 20260510042909 | 15 | 255 | 3.2 | 3.2 | 0.00 | 0.00 | 0.00 | 78 | 1006.2 |
| 20260510042405 | 15 | 246 | 0.0 | 0.0 | 0.00 | 0.00 | 0.00 | 78 | 1006.1 |
| 20260510041900 | 15 | 248 | 1.6 | 1.6 | 0.00 | 0.00 | 0.00 | 77 | 1006.2 |
| 20260510041358 | 15 | 270 | 1.6 | 1.6 | 0.00 | 0.00 | 0.00 | 77 | 1006.1 |
| 20260510040855 | 15 | 250 | 0.0 | 0.0 | 0.00 | 0.00 | 0.00 | 77 | 1006.0 |
| 20260510040352 | 15 | 240 | 0.0 | 0.0 | 0.00 | 0.00 | 0.00 | 78 | 1005.7 |
| 20260510035847 | 15 | 247 | 0.0 | 1.6 | 0.00 | 0.69 | 0.69 | 77 | 1005.8 |
| 20260510035344 | 16 | 253 | 0.0 | 1.6 | 0.00 | 0.69 | 0.69 | 76 | 1006.1 |
| 20260510034839 | 16 | 250 | 1.6 | 1.6 | 0.00 | 0.69 | 0.69 | 75 | 1005.9 |
| 20260510034337 | 16 | 281 | 3.2 | 3.2 | 0.00 | 0.69 | 0.69 | 75 | 1005.9 |
| 20260510033834 | 16 | 55 | 1.6 | 1.6 | 0.00 | 0.69 | 0.69 | 75 | 1005.7 |
| 20260510033330 | 16 | 265 | 1.6 | 1.6 | 0.00 | 0.69 | 0.69 | 74 | 1005.7 |
| 20260510032827 | 16 | 247 | 0.0 | 1.6 | 0.00 | 0.69 | 0.69 | 74 | 1006.0 |
| 20260510032324 | 16 | 271 | 1.6 | 3.2 | 0.00 | 0.69 | 0.69 | 73 | 1005.8 |
| 20260510031819 | 17 | 199 | 3.2 | 4.8 | 0.00 | 0.69 | 0.69 | 71 | 1005.7 |
| 20260510031315 | 17 | 240 | 1.6 | 1.6 | 0.00 | 0.69 | 0.69 | 71 | 1005.7 |
| 20260510030809 | 17 | 261 | 3.2 | 3.2 | 0.00 | 0.69 | 0.69 | 70 | 1005.7 |
| 20260510030306 | 17 | 264 | 1.6 | 3.2 | 0.00 | 0.69 | 0.69 | 70 | 1005.6 |
| 20260510025803 | 17 | 263 | 6.4 | 8.0 | 0.00 | 0.69 | 0.69 | 70 | 1005.6 |
| 20260510025301 | 17 | 259 | 3.2 | 3.2 | 0.00 | 0.69 | 0.69 | 70 | 1005.6 |
| 20260510024757 | 17 | 259 | 3.2 | 3.2 | 0.00 | 0.69 | 0.69 | 69 | 1005.7 |
| 20260510024254 | 17 | 271 | 3.2 | 3.2 | 0.00 | 0.69 | 0.69 | 70 | 1005.6 |
| 20260510023750 | 17 | 256 | 3.2 | 3.2 | 0.00 | 0.69 | 0.69 | 69 | 1005.7 |
| 20260510023247 | 17 | 267 | 4.8 | 4.8 | 0.00 | 0.69 | 0.69 | 69 | 1005.6 |
| 20260510022744 | 17 | 270 | 3.2 | 4.8 | 0.00 | 0.69 | 0.69 | 69 | 1005.6 |
| 20260510022244 | 17 | 231 | 0.0 | 1.6 | 0.00 | 0.69 | 0.69 | 68 | 1005.4 |
| 20260510021743 | 17 | 260 | 3.2 | 3.2 | 0.00 | 0.69 | 0.69 | 67 | 1005.4 |
| 20260510021241 | 17 | 279 | 6.4 | 8.0 | 0.00 | 0.69 | 0.69 | 67 | 1005.3 |
| 20260510020736 | 17 | 247 | 3.2 | 3.2 | 0.00 | 0.69 | 0.69 | 67 | 1005.1 |
| 20260510020226 | 17 | 262 | 3.2 | 3.2 | 0.00 | 0.69 | 0.69 | 67 | 1005.2 |
| 20260510015722 | 17 | 258 | 3.2 | 3.2 | 0.00 | 0.69 | 0.69 | 68 | 1005.1 |
| 20260510015218 | 17 | 250 | 3.2 | 3.2 | 0.00 | 0.69 | 0.69 | 67 | 1005.2 |
| 20260510014714 | 17 | 235 | 6.4 | 9.7 | 0.00 | 0.69 | 0.69 | 66 | 1005.0 |
| 20260510014211 | 17 | 248 | 3.2 | 4.8 | 0.00 | 0.69 | 0.69 | 66 | 1004.9 |
| 20260510013711 | 18 | 262 | 3.2 | 3.2 | 0.00 | 0.69 | 0.69 | 67 | 1004.7 |
| 20260510013208 | 18 | 262 | 3.2 | 3.2 | 0.00 | 0.69 | 0.69 | 66 | 1004.5 |
| 20260510012702 | 18 | 254 | 1.6 | 1.6 | 0.00 | 0.69 | 0.69 | 66 | 1004.6 |
| 20260510012157 | 18 | 264 | 4.8 | 4.8 | 0.00 | 0.69 | 0.69 | 66 | 1004.6 |
| 20260510011652 | 18 | 266 | 3.2 | 3.2 | 0.00 | 0.69 | 0.69 | 65 | 1004.6 |
| 20260510011149 | 18 | 276 | 3.2 | 3.2 | 0.00 | 0.69 | 0.69 | 65 | 1004.3 |
| 20260510010644 | 18 | 263 | 3.2 | 4.8 | 0.00 | 0.69 | 0.69 | 65 | 1004.4 |
| 20260510010142 | 18 | 270 | 4.8 | 4.8 | 0.00 | 0.69 | 0.69 | 64 | 1004.3 |
| 20260510005638 | 18 | 250 | 1.6 | 1.6 | 0.00 | 0.69 | 0.69 | 65 | 1004.2 |
| 20260510005135 | 18 | 243 | 1.6 | 3.2 | 0.00 | 0.69 | 0.69 | 64 | 1004.3 |
| 20260510004633 | 18 | 259 | 4.8 | 8.0 | 0.00 | 0.69 | 0.69 | 64 | 1004.3 |
| 20260510004131 | 18 | 251 | 3.2 | 3.2 | 0.00 | 0.69 | 0.69 | 63 | 1004.1 |
| 20260510003628 | 18 | 258 | 1.6 | 3.2 | 0.00 | 0.69 | 0.69 | 63 | 1004.1 |
| 20260510003124 | 18 | 255 | 1.6 | 1.6 | 0.00 | 0.69 | 0.69 | 63 | 1004.1 |
| 20260510002624 | 19 | 260 | 4.8 | 4.8 | 0.00 | 0.69 | 0.69 | 62 | 1004.2 |
| 20260510002121 | 19 | 254 | 4.8 | 4.8 | 0.00 | 0.69 | 0.69 | 61 | 1004.0 |
| 20260510001618 | 20 | 261 | 6.4 | 8.0 | 0.00 | 0.69 | 0.69 | 59 | 1004.0 |
| 20260510001117 | 20 | 267 | 3.2 | 3.2 | 0.00 | 0.69 | 0.69 | 59 | 1003.9 |
| 20260510000616 | 19 | 260 | 6.4 | 8.0 | 0.00 | 0.69 | 0.69 | 60 | 1003.7 |
| 20260510000114 | 20 | 262 | 4.8 | 8.0 | 0.00 | 0.69 | 0.69 | 59 | 1003.8 |
| 20260509235610 | 20 | 251 | 14.5 | 16.1 | 0.00 | 0.69 | 0.69 | 58 | 1003.7 |
| 20260509235107 | 20 | 268 | 4.8 | 4.8 | 0.00 | 0.69 | 0.69 | 59 | 1003.7 |
| 20260509234603 | 20 | 261 | 4.8 | 4.8 | 0.00 | 0.69 | 0.69 | 59 | 1003.6 |
| 20260509234101 | 20 | 263 | 8.0 | 11.3 | 0.00 | 0.69 | 0.69 | 58 | 1003.6 |
| 20260509233558 | 20 | 255 | 4.8 | 4.8 | 0.00 | 0.69 | 0.69 | 59 | 1003.8 |
| 20260509233055 | 20 | 270 | 6.4 | 8.0 | 0.00 | 0.69 | 0.69 | 60 | 1003.7 |
| 20260509232552 | 20 | 253 | 4.8 | 8.0 | 0.00 | 0.69 | 0.69 | 59 | 1003.7 |
| 20260509232049 | 20 | 262 | 6.4 | 8.0 | 0.00 | 0.69 | 0.69 | 59 | 1003.6 |
| 20260509231545 | 20 | 263 | 9.7 | 11.3 | 0.00 | 0.69 | 0.69 | 58 | 1003.6 |
| 20260509231043 | 20 | 282 | 6.4 | 9.7 | 0.00 | 0.69 | 0.69 | 58 | 1003.5 |
| 20260509230539 | 20 | 280 | 6.4 | 8.0 | 0.00 | 0.69 | 0.69 | 59 | 1003.6 |
| 20260509230037 | 20 | 276 | 4.8 | 8.0 | 0.00 | 0.69 | 0.69 | 58 | 1003.4 |
| 20260509225532 | 20 | 277 | 9.7 | 12.9 | 0.00 | 0.69 | 0.69 | 57 | 1003.3 |
| 20260509225028 | 21 | 257 | 4.8 | 8.0 | 0.00 | 0.69 | 0.69 | 58 | 1003.3 |
| 20260509224524 | 21 | 257 | 4.8 | 8.0 | 0.00 | 0.69 | 0.69 | 58 | 1003.4 |
| 20260509224021 | 20 | 265 | 11.3 | 12.9 | 0.00 | 0.69 | 0.69 | 58 | 1003.5 |
| 20260509223517 | 21 | 257 | 4.8 | 8.0 | 0.00 | 0.69 | 0.69 | 58 | 1003.5 |
| 20260509223016 | 21 | 286 | 8.0 | 11.3 | 0.00 | 0.69 | 0.69 | 58 | 1003.4 |
| 20260509222511 | 21 | 35 | 4.8 | 4.8 | 0.00 | 0.69 | 0.69 | 58 | 1003.3 |
| 20260509222007 | 21 | 269 | 8.0 | 9.7 | 0.00 | 0.69 | 0.69 | 59 | 1003.3 |
| 20260509221503 | 21 | 283 | 4.8 | 8.0 | 0.00 | 0.69 | 0.69 | 58 | 1003.5 |
| 20260509220959 | 21 | 240 | 8.0 | 11.3 | 0.00 | 0.69 | 0.69 | 59 | 1003.4 |
| 20260509220455 | 21 | 258 | 3.2 | 3.2 | 0.00 | 0.69 | 0.69 | 59 | 1003.3 |
| 20260509215951 | 21 | 254 | 4.8 | 8.0 | 0.00 | 0.69 | 0.69 | 60 | 1003.4 |
| 20260509215447 | 21 | 178 | 8.0 | 12.9 | 0.00 | 0.69 | 0.69 | 59 | 1003.4 |
| 20260509214945 | 21 | 266 | 4.8 | 4.8 | 0.00 | 0.69 | 0.69 | 58 | 1003.5 |
| 20260509214442 | 21 | 246 | 6.4 | 12.9 | 0.00 | 0.69 | 0.69 | 58 | 1003.5 |
| 20260509213938 | 21 | 151 | 8.0 | 11.3 | 0.00 | 0.69 | 0.69 | 57 | 1003.4 |
| 20260509213434 | 21 | 234 | 8.0 | 11.3 | 0.00 | 0.69 | 0.69 | 58 | 1003.5 |
| 20260509212931 | 21 | 278 | 9.7 | 12.9 | 0.00 | 0.69 | 0.69 | 60 | 1003.7 |
| 20260509212429 | 21 | 274 | 9.7 | 12.9 | 0.00 | 0.69 | 0.69 | 59 | 1003.6 |
| 20260509211925 | 21 | 273 | 6.4 | 8.0 | 0.00 | 0.69 | 0.69 | 60 | 1003.8 |
| 20260509211420 | 21 | 268 | 12.9 | 14.5 | 0.00 | 0.69 | 0.69 | 58 | 1003.7 |
| 20260509210917 | 21 | 247 | 4.8 | 8.0 | 0.00 | 0.69 | 0.69 | 61 | 1003.7 |
| 20260509210414 | 21 | 270 | 8.0 | 11.3 | 0.00 | 0.69 | 0.69 | 59 | 1003.7 |
| 20260509205909 | 21 | 259 | 1.6 | 3.2 | 0.00 | 0.69 | 0.69 | 61 | 1003.7 |
| 20260509205404 | 20 | 282 | 6.4 | 8.0 | 0.00 | 0.69 | 0.69 | 60 | 1003.7 |
| 20260509204900 | 21 | 257 | 8.0 | 9.7 | 0.00 | 0.69 | 0.69 | 60 | 1003.9 |